Time;durP1;ratioP1;P1;durP2;ratioP2;P2;SDS_P1;SDS_P2;PMS_P1;PMS_P2;Temp;Humidity;BMP_temperature;BMP_pressure;BME280_temperature;BME280_humidity;BME280_pressure;Samples;Min_cycle;Max_cycle;Signal;HPM_P1;HPM_P2
2021/06/17 00:02:05;;;;;;;5.32;2.28;;;20.60;98.30;;;;;;5031657;28;20436;-78
2021/06/17 00:04:31;;;;;;;3.90;2.33;;;20.50;98.70;;;;;;5031535;28;20031;-78
2021/06/17 00:06:57;;;;;;;3.45;2.40;;;20.50;98.70;;;;;;5031642;28;20084;-78
2021/06/17 00:09:23;;;;;;;4.00;2.33;;;20.50;98.80;;;;;;5032776;28;20389;-78
2021/06/17 00:11:48;;;;;;;4.22;2.28;;;20.40;98.40;;;;;;5036646;28;20017;-78
2021/06/17 00:14:15;;;;;;;4.97;2.50;;;20.40;98.60;;;;;;5036616;28;20390;-78
2021/06/17 00:16:41;;;;;;;6.65;2.60;;;20.40;98.80;;;;;;5036846;28;20034;-78
2021/06/17 00:19:06;;;;;;;4.43;2.40;;;20.30;98.60;;;;;;5035262;28;20032;-78
2021/06/17 00:21:32;;;;;;;6.32;2.40;;;20.20;98.90;;;;;;5036710;28;20025;-78
2021/06/17 00:23:58;;;;;;;2.95;2.50;;;20.30;99.00;;;;;;5035051;28;20030;-78
2021/06/17 00:26:24;;;;;;;5.38;2.78;;;20.30;98.90;;;;;;5036367;28;20017;-78
2021/06/17 00:28:49;;;;;;;7.07;2.47;;;20.20;99.00;;;;;;5036584;28;20021;-78
2021/06/17 00:31:15;;;;;;;7.00;3.00;;;20.20;98.90;;;;;;5036801;28;20026;-78
2021/06/17 00:33:40;;;;;;;4.20;2.72;;;20.20;98.90;;;;;;5036185;28;20108;-78
2021/06/17 00:36:06;;;;;;;6.10;2.88;;;20.10;98.90;;;;;;5035998;28;20049;-78
2021/06/17 00:38:32;;;;;;;4.90;2.63;;;20.30;98.90;;;;;;5036146;28;20040;-77
2021/06/17 00:40:58;;;;;;;4.22;2.45;;;20.30;98.80;;;;;;5034843;28;20021;-78
2021/06/17 00:43:24;;;;;;;8.55;3.10;;;20.30;98.50;;;;;;5035973;28;20025;-78
2021/06/17 00:45:52;;;;;;;5.68;3.10;;;20.10;98.80;;;;;;5034771;28;20109;-78
2021/06/17 00:48:18;;;;;;;5.88;2.90;;;20.10;99.20;;;;;;5036260;28;20473;-78
2021/06/17 00:50:54;;;;;;;4.80;2.78;;;20.00;99.00;;;;;;5034658;28;20022;-78
2021/06/17 00:53:30;;;;;;;3.38;2.38;;;20.00;99.20;;;;;;5034673;28;20028;-78
2021/06/17 00:55:57;;;;;;;5.90;2.70;;;19.90;99.30;;;;;;5034625;28;20022;-78
2021/06/17 00:58:23;;;;;;;4.80;2.92;;;19.90;99.20;;;;;;5034445;28;20060;-78
2021/06/17 01:00:49;;;;;;;5.95;2.33;;;19.90;99.00;;;;;;5034497;28;20449;-78
2021/06/17 01:03:16;;;;;;;6.78;2.90;;;19.80;99.40;;;;;;5035619;28;20092;-78
2021/06/17 01:05:42;;;;;;;6.07;2.90;;;19.70;99.90;;;;;;5034604;28;20136;-78
2021/06/17 01:08:30;;;;;;;3.35;2.35;;;19.80;99.90;;;;;;5034379;28;20481;-78
2021/06/17 01:11:12;;;;;;;4.50;2.50;;;19.80;99.60;;;;;;5034332;28;20025;-78
2021/06/17 01:14:03;;;;;;;4.68;2.63;;;20.00;99.00;;;;;;5035526;28;20489;-78
2021/06/17 01:16:36;;;;;;;5.90;2.70;;;20.00;99.00;;;;;;5030491;28;20095;-78
2021/06/17 01:19:24;;;;;;;6.40;2.85;;;20.00;98.70;;;;;;5035387;28;20021;-78
2021/06/17 01:22:02;;;;;;;3.97;2.72;;;19.90;99.30;;;;;;5034050;28;20511;-78
2021/06/17 01:24:58;;;;;;;7.28;2.50;;;19.80;99.30;;;;;;5035251;28;20392;-78
2021/06/17 01:27:52;;;;;;;6.45;2.78;;;19.70;99.80;;;;;;5035224;28;20530;-78
2021/06/17 01:30:19;;;;;;;3.33;2.38;;;19.70;99.40;;;;;;5035213;28;20025;-78
2021/06/17 01:32:50;;;;;;;6.82;2.78;;;19.70;99.70;;;;;;5035448;28;20108;-78
2021/06/17 01:35:19;;;;;;;6.57;2.60;;;19.80;99.50;;;;;;5034862;28;20096;-78
2021/06/17 01:37:46;;;;;;;4.40;2.67;;;19.80;99.80;;;;;;5035049;28;20379;-78
2021/06/17 01:40:14;;;;;;;5.15;2.70;;;19.70;99.30;;;;;;5034962;28;20491;-78
2021/06/17 01:42:42;;;;;;;2.85;2.38;;;19.60;99.90;;;;;;5034960;28;20013;-78
2021/06/17 01:45:10;;;;;;;4.38;2.90;;;19.70;99.90;;;;;;5035077;28;20033;-78
2021/06/17 01:47:37;;;;;;;7.13;2.58;;;19.70;99.70;;;;;;5033608;28;20029;-78
2021/06/17 01:50:04;;;;;;;5.70;2.58;;;19.70;99.70;;;;;;5033596;28;20033;-78
2021/06/17 01:52:32;;;;;;;4.75;2.65;;;19.80;99.30;;;;;;5035340;28;20083;-78
2021/06/17 01:55:00;;;;;;;4.95;2.85;;;19.60;99.80;;;;;;5034720;28;20022;-78
2021/06/17 01:57:27;;;;;;;4.50;2.70;;;19.70;99.50;;;;;;5035217;28;20045;-78
2021/06/17 01:59:54;;;;;;;7.32;2.60;;;19.70;99.90;;;;;;5034608;28;20550;-78
2021/06/17 02:02:20;;;;;;;3.15;2.60;;;19.60;99.50;;;;;;5034575;28;20029;-78
2021/06/17 02:04:51;;;;;;;5.47;2.58;;;19.50;99.90;;;;;;5033150;28;20033;-78
2021/06/17 02:07:20;;;;;;;5.38;2.50;;;19.50;99.90;;;;;;5033292;28;20389;-78
2021/06/17 02:09:50;;;;;;;8.45;2.70;;;19.60;99.60;;;;;;5033156;28;20022;-78
2021/06/17 02:12:16;;;;;;;5.75;3.00;;;19.60;99.60;;;;;;5033133;28;20029;-78
2021/06/17 02:14:43;;;;;;;6.55;3.00;;;19.60;99.50;;;;;;5034363;28;20386;-77
2021/06/17 02:17:10;;;;;;;4.68;2.72;;;19.60;99.70;;;;;;5034301;28;20508;-78
2021/06/17 02:19:37;;;;;;;7.40;2.97;;;19.50;99.60;;;;;;5034212;28;20100;-78
2021/06/17 02:22:04;;;;;;;9.93;2.55;;;19.50;99.90;;;;;;5034221;28;20021;-78
2021/06/17 02:24:34;;;;;;;5.93;2.83;;;19.60;99.70;;;;;;5034088;28;20022;-78
2021/06/17 02:27:07;;;;;;;6.70;2.88;;;19.60;99.60;;;;;;5034087;28;20021;-78
2021/06/17 02:29:40;;;;;;;4.05;2.70;;;19.60;99.50;;;;;;5032781;28;20053;-78
2021/06/17 02:32:08;;;;;;;6.50;3.03;;;19.60;99.50;;;;;;5033840;28;20033;-78
2021/06/17 02:34:35;;;;;;;5.93;2.50;;;19.50;99.80;;;;;;5032687;28;20061;-78
2021/06/17 02:37:01;;;;;;;7.50;3.05;;;19.50;99.90;;;;;;5033808;28;20053;-78
2021/06/17 02:39:28;;;;;;;4.35;2.90;;;19.50;99.90;;;;;;5034171;28;20025;-78
2021/06/17 02:41:56;;;;;;;6.00;2.85;;;19.40;99.90;;;;;;5033874;28;20109;-78
2021/06/17 02:44:24;;;;;;;4.75;2.58;;;19.40;99.90;;;;;;5033975;28;20026;-78
2021/06/17 02:46:51;;;;;;;3.38;2.67;;;19.30;99.90;;;;;;5032487;28;20018;-78
2021/06/17 02:49:17;;;;;;;5.97;2.67;;;19.30;99.90;;;;;;5032457;28;20053;-78
2021/06/17 02:51:43;;;;;;;9.75;2.90;;;19.30;99.90;;;;;;5032444;28;20483;-78
2021/06/17 02:54:09;;;;;;;7.78;2.83;;;19.30;99.90;;;;;;5032418;28;20057;-78
2021/06/17 02:56:58;;;;;;;4.18;2.58;;;19.40;99.90;;;;;;5032287;28;20029;-78
2021/06/17 02:59:27;;;;;;;4.95;2.75;;;19.30;99.90;;;;;;5032325;28;20033;-78
2021/06/17 03:02:05;;;;;;;3.53;2.60;;;19.10;99.90;;;;;;5033580;28;20033;-78
2021/06/17 03:04:40;;;;;;;5.50;2.83;;;19.30;99.90;;;;;;5033481;28;20033;-78
2021/06/17 03:07:11;;;;;;;6.35;2.63;;;19.30;99.90;;;;;;5033794;28;20018;-78
2021/06/17 03:09:45;;;;;;;6.38;2.47;;;19.40;99.90;;;;;;5033472;28;20033;-78
2021/06/17 03:12:14;;;;;;;5.88;2.72;;;19.30;99.90;;;;;;5033775;28;20473;-78
2021/06/17 03:14:41;;;;;;;3.67;2.83;;;19.10;99.90;;;;;;5033371;28;20029;-78
2021/06/17 03:17:08;;;;;;;4.65;2.60;;;19.10;99.90;;;;;;5033332;28;20048;-78
2021/06/17 03:19:35;;;;;;;5.28;2.45;;;19.00;99.90;;;;;;5032055;28;20033;-78
2021/06/17 03:22:07;;;;;;;6.72;2.88;;;19.10;99.90;;;;;;5031998;28;20032;-78
2021/06/17 03:24:37;;;;;;;4.60;2.60;;;19.10;99.90;;;;;;5031887;28;20029;-78
2021/06/17 03:27:06;;;;;;;3.88;2.72;;;19.20;99.90;;;;;;5033249;28;20017;-78
2021/06/17 03:29:39;;;;;;;4.40;2.92;;;19.10;99.90;;;;;;5031921;28;20030;-78
2021/06/17 03:32:08;;;;;;;4.13;2.78;;;19.20;99.90;;;;;;5031957;28;20469;-78
2021/06/17 03:34:37;;;;;;;4.10;2.83;;;19.10;99.90;;;;;;5032101;28;20029;-78
2021/06/17 03:37:04;;;;;;;8.10;2.88;;;19.10;99.90;;;;;;5031754;28;20049;-78
2021/06/17 03:39:31;;;;;;;5.05;2.70;;;19.10;99.90;;;;;;5033089;28;20029;-78
2021/06/17 03:41:58;;;;;;;5.18;2.83;;;19.00;99.90;;;;;;5031895;28;20022;-78
2021/06/17 03:44:24;;;;;;;7.00;3.00;;;18.90;99.90;;;;;;5034270;28;20083;-78
2021/06/17 03:46:52;;;;;;;6.50;2.63;;;18.80;99.90;;;;;;5037100;28;20169;-77
2021/06/17 03:49:21;;;;;;;5.47;2.90;;;18.60;99.90;;;;;;5037347;28;20018;-78
2021/06/17 03:51:47;;;;;;;4.30;2.90;;;18.50;99.90;;;;;;5037295;28;20056;-78
2021/06/17 03:54:23;;;;;;;8.82;3.03;;;18.80;99.90;;;;;;5037253;28;20030;-77
2021/06/17 03:56:57;;;;;;;4.20;2.88;;;19.20;99.90;;;;;;5035728;28;20025;-78
2021/06/17 03:59:25;;;;;;;4.63;2.90;;;19.10;99.90;;;;;;5036939;28;20485;-78
2021/06/17 04:01:52;;;;;;;3.58;2.70;;;19.00;99.90;;;;;;5036809;28;20052;-78
2021/06/17 04:04:18;;;;;;;5.32;2.78;;;19.10;99.90;;;;;;5035444;28;20032;-78
2021/06/17 04:06:51;;;;;;;5.85;2.72;;;19.10;99.90;;;;;;5036773;28;20561;-78
2021/06/17 04:09:29;;;;;;;6.35;2.60;;;18.90;99.90;;;;;;5035484;28;20053;-78
2021/06/17 04:12:13;;;;;;;6.13;3.10;;;18.90;99.90;;;;;;5035532;28;20480;-78
2021/06/17 04:14:42;;;;;;;4.88;2.72;;;19.10;99.90;;;;;;5036702;28;20030;-78
2021/06/17 04:17:12;;;;;;;5.30;3.00;;;19.00;99.90;;;;;;5035323;28;20508;-78
2021/06/17 04:19:40;;;;;;;8.77;3.10;;;19.00;99.90;;;;;;5035209;28;20028;-78
2021/06/17 04:22:09;;;;;;;4.70;3.10;;;18.80;99.90;;;;;;5036398;28;20053;-78
2021/06/17 04:24:40;;;;;;;4.45;2.80;;;19.00;99.90;;;;;;5035051;28;20026;-78
2021/06/17 04:27:06;;;;;;;5.70;3.50;;;19.30;99.90;;;;;;5035138;28;20385;-78
2021/06/17 04:29:37;;;;;;;5.68;3.22;;;19.40;99.90;;;;;;5036321;28;20026;-78
2021/06/17 04:32:05;;;;;;;5.78;3.08;;;19.30;99.90;;;;;;5035027;28;20017;-78
2021/06/17 04:34:32;;;;;;;6.93;2.97;;;19.40;99.90;;;;;;5036334;28;20032;-78
2021/06/17 04:36:58;;;;;;;4.13;2.90;;;19.20;99.90;;;;;;5036052;28;20045;-78
2021/06/17 04:39:27;;;;;;;4.90;3.33;;;19.20;99.90;;;;;;5036201;28;20100;-78
2021/06/17 04:41:53;;;;;;;4.63;3.22;;;19.30;99.90;;;;;;5036077;28;20416;-78
2021/06/17 04:44:21;;;;;;;10.55;3.53;;;19.30;99.90;;;;;;5035981;28;20424;-79
2021/06/17 04:46:47;;;;;;;4.38;2.80;;;19.30;99.90;;;;;;5036199;28;20049;-78
2021/06/17 04:49:15;;;;;;;7.10;3.45;;;19.50;99.90;;;;;;5035937;28;20423;-78
2021/06/17 04:51:42;;;;;;;8.30;3.13;;;19.60;99.90;;;;;;5034617;28;20060;-78
2021/06/17 04:54:18;;;;;;;3.30;2.92;;;19.60;99.90;;;;;;5034575;28;20481;-78
2021/06/17 04:56:44;;;;;;;6.25;3.45;;;19.70;99.90;;;;;;5035405;28;20043;-78
2021/06/17 04:59:10;;;;;;;9.90;2.85;;;19.90;99.90;;;;;;5036015;28;20152;-78
2021/06/17 05:01:39;;;;;;;5.53;2.60;;;19.90;99.90;;;;;;5035631;28;20057;-78
2021/06/17 05:04:05;;;;;;;4.38;2.97;;;20.00;99.90;;;;;;5034404;28;20049;-78
2021/06/17 05:06:34;;;;;;;7.18;3.00;;;19.90;99.90;;;;;;5036021;28;20072;-79
2021/06/17 05:11:44;;;;;;;4.07;2.90;;;19.80;99.90;;;;;;5035884;28;20032;-79
2021/06/17 05:14:11;;;;;;;5.00;2.95;;;19.90;99.90;;;;;;5034180;28;20029;-78
2021/06/17 05:16:36;;;;;;;6.63;3.30;;;19.80;99.90;;;;;;5035452;28;20025;-78
2021/06/17 05:19:02;;;;;;;7.13;3.00;;;19.80;99.90;;;;;;5034145;28;20543;-79
2021/06/17 05:21:28;;;;;;;6.50;2.90;;;19.90;99.90;;;;;;5035323;28;20432;-79
2021/06/17 05:23:54;;;;;;;5.03;2.92;;;20.00;99.90;;;;;;5033965;28;20029;-78
2021/06/17 05:26:21;;;;;;;5.57;2.67;;;20.00;99.90;;;;;;5033992;28;20022;-78
2021/06/17 05:28:47;;;;;;;5.93;3.33;;;20.20;99.90;;;;;;5033963;28;20017;-78
2021/06/17 05:31:13;;;;;;;5.30;3.05;;;20.20;99.90;;;;;;5035492;28;20040;-78
2021/06/17 05:33:38;;;;;;;6.93;2.95;;;20.20;99.90;;;;;;5033824;28;20473;-79
2021/06/17 05:36:05;;;;;;;5.78;2.90;;;20.20;99.90;;;;;;5034854;28;20496;-78
2021/06/17 05:38:33;;;;;;;8.77;3.35;;;20.30;99.90;;;;;;5035009;28;20556;-78
2021/06/17 05:40:59;;;;;;;6.53;3.10;;;20.50;99.90;;;;;;5035026;28;20064;-78
2021/06/17 05:43:25;;;;;;;3.97;3.10;;;20.50;99.90;;;;;;5035158;28;20036;-78
2021/06/17 05:45:51;;;;;;;6.22;3.17;;;20.60;99.90;;;;;;5034914;28;20184;-78
2021/06/17 05:48:17;;;;;;;5.97;3.05;;;20.70;99.90;;;;;;5035187;28;20029;-78
2021/06/17 05:50:43;;;;;;;7.43;3.15;;;20.60;99.90;;;;;;5034854;28;20382;-78
2021/06/17 05:53:08;;;;;;;4.78;2.80;;;20.70;99.90;;;;;;5035097;28;20381;-78
2021/06/17 05:55:34;;;;;;;5.85;2.70;;;20.70;99.90;;;;;;5033417;28;20025;-79
2021/06/17 05:58:00;;;;;;;5.63;3.00;;;20.90;99.90;;;;;;5033689;28;20037;-79
2021/06/17 06:00:26;;;;;;;5.47;3.08;;;21.00;99.90;;;;;;5033598;28;20443;-78
2021/06/17 06:02:52;;;;;;;8.63;2.95;;;21.10;99.90;;;;;;5033300;28;20029;-78
2021/06/17 06:05:18;;;;;;;4.82;3.05;;;21.20;99.90;;;;;;5034481;28;20084;-78
2021/06/17 06:07:44;;;;;;;8.77;3.10;;;21.30;99.90;;;;;;5032363;28;20370;-78
2021/06/17 06:10:14;;;;;;;7.88;2.92;;;21.40;99.90;;;;;;5017049;28;20034;-78
2021/06/17 06:12:40;;;;;;;6.70;2.85;;;21.50;99.90;;;;;;5033167;28;20022;-78
2021/06/17 06:15:06;;;;;;;8.75;2.75;;;21.60;99.90;;;;;;5034373;28;20071;-78
2021/06/17 06:17:32;;;;;;;4.30;2.70;;;21.60;99.90;;;;;;5033070;28;20036;-78
2021/06/17 06:19:59;;;;;;;7.72;3.00;;;21.70;99.90;;;;;;5034800;28;20033;-78
2021/06/17 06:22:25;;;;;;;8.00;2.88;;;21.80;99.90;;;;;;5032961;28;20043;-78
2021/06/17 06:24:51;;;;;;;6.63;2.45;;;21.90;99.90;;;;;;5032857;28;20536;-78
2021/06/17 06:27:17;;;;;;;10.85;2.45;;;22.00;99.90;;;;;;5034112;28;20025;-78
2021/06/17 06:29:42;;;;;;;11.15;2.70;;;22.10;99.90;;;;;;5034114;28;20388;-78
2021/06/17 06:32:09;;;;;;;10.35;2.78;;;22.20;99.90;;;;;;5032793;28;20021;-78
2021/06/17 06:34:35;;;;;;;8.93;3.05;;;22.30;99.90;;;;;;5032562;28;20036;-78
2021/06/17 06:37:01;;;;;;;5.82;2.80;;;22.40;99.90;;;;;;5033784;28;20068;-78
2021/06/17 06:39:26;;;;;;;4.63;2.33;;;22.50;99.90;;;;;;5032572;28;20484;-78
2021/06/17 06:41:52;;;;;;;8.73;2.70;;;22.60;99.80;;;;;;5033894;28;20552;-78
2021/06/17 06:44:18;;;;;;;5.18;2.30;;;22.80;99.90;;;;;;5033964;28;20465;-79
2021/06/17 06:46:45;;;;;;;7.18;2.33;;;22.90;99.30;;;;;;5032508;28;20490;-79
2021/06/17 06:49:10;;;;;;;5.65;2.65;;;23.10;99.50;;;;;;5032518;28;20021;-78
2021/06/17 06:51:39;;;;;;;6.28;2.20;;;23.30;98.60;;;;;;5033706;28;20021;-78
2021/06/17 06:54:06;;;;;;;5.90;1.98;;;23.50;97.60;;;;;;5033688;28;20516;-79
2021/06/17 06:56:32;;;;;;;2.95;1.73;;;23.70;96.10;;;;;;5033609;28;20503;-79
2021/06/17 06:58:57;;;;;;;4.85;1.70;;;23.90;94.00;;;;;;5033866;28;20029;-79
2021/06/17 07:01:23;;;;;;;4.03;1.95;;;24.00;93.40;;;;;;5033579;28;20113;-79
2021/06/17 07:03:49;;;;;;;4.68;1.98;;;24.20;93.70;;;;;;5032207;28;20554;-79
2021/06/17 07:06:14;;;;;;;6.35;1.98;;;24.40;93.10;;;;;;5032177;28;20092;-78
2021/06/17 07:08:40;;;;;;;6.65;1.98;;;24.50;92.20;;;;;;5033728;28;20021;-79
2021/06/17 07:11:06;;;;;;;7.00;1.90;;;24.60;93.00;;;;;;5032179;28;20025;-79
2021/06/17 07:13:31;;;;;;;4.20;1.90;;;24.70;93.10;;;;;;5033653;28;20025;-79
2021/06/17 07:15:57;;;;;;;5.82;2.03;;;24.90;92.20;;;;;;5032004;28;20029;-79
2021/06/17 07:18:23;;;;;;;4.15;2.10;;;25.00;91.90;;;;;;5033180;28;20022;-79
2021/06/17 07:20:49;;;;;;;5.50;2.20;;;25.10;91.60;;;;;;5032057;28;20025;-79
2021/06/17 07:23:15;;;;;;;5.55;2.15;;;25.20;91.70;;;;;;5032067;28;20025;-79
2021/06/17 07:25:42;;;;;;;3.28;1.70;;;25.20;91.60;;;;;;5033229;28;20028;-79
2021/06/17 07:28:08;;;;;;;8.57;2.25;;;25.30;90.90;;;;;;5032016;28;20026;-79
2021/06/17 07:30:34;;;;;;;8.98;2.20;;;25.30;91.00;;;;;;5033202;28;20072;-79
2021/06/17 07:32:59;;;;;;;8.27;2.15;;;25.50;91.50;;;;;;5032175;28;20029;-79
2021/06/17 07:35:26;;;;;;;7.68;2.00;;;25.50;90.80;;;;;;5031601;28;20049;-79
2021/06/17 07:37:51;;;;;;;4.57;1.90;;;25.60;90.50;;;;;;5031868;28;20120;-79
2021/06/17 07:40:18;;;;;;;3.75;2.05;;;25.60;90.90;;;;;;5031884;28;20056;-79
2021/06/17 07:42:44;;;;;;;5.82;1.77;;;25.80;91.00;;;;;;5031784;28;20021;-77
2021/06/17 07:45:11;;;;;;;6.68;1.83;;;26.00;88.40;;;;;;5033277;28;20112;-77
2021/06/17 07:47:37;;;;;;;4.20;1.75;;;26.00;86.90;;;;;;5031777;28;20026;-79
2021/06/17 07:50:05;;;;;;;4.18;1.98;;;26.20;86.30;;;;;;5031782;28;20021;-77
2021/06/17 07:52:30;;;;;;;4.80;1.75;;;26.20;84.40;;;;;;5032914;28;20021;-77
2021/06/17 07:54:56;;;;;;;4.07;1.65;;;26.30;84.50;;;;;;5033003;28;20393;-77
2021/06/17 07:57:22;;;;;;;3.15;1.40;;;26.40;83.70;;;;;;5033482;28;20091;-77
2021/06/17 07:59:47;;;;;;;3.95;2.20;;;26.50;80.90;;;;;;5032955;28;20022;-78
2021/06/17 08:02:13;;;;;;;6.63;1.75;;;26.70;84.10;;;;;;5031544;28;20088;-77
2021/06/17 08:04:39;;;;;;;4.07;2.00;;;26.90;84.10;;;;;;5032810;28;20040;-77
2021/06/17 08:07:05;;;;;;;4.03;1.70;;;27.00;83.60;;;;;;5031589;28;20060;-77
2021/06/17 08:09:31;;;;;;;5.40;1.70;;;27.10;82.30;;;;;;5031563;28;20021;-77
2021/06/17 08:11:57;;;;;;;5.15;1.60;;;27.10;83.10;;;;;;5032805;28;20025;-77
2021/06/17 08:14:28;;;;;;;9.25;2.10;;;27.10;81.70;;;;;;5031503;28;20025;-78
2021/06/17 08:16:56;;;;;;;4.35;1.77;;;27.20;80.70;;;;;;5031505;28;20025;-77
2021/06/17 08:19:29;;;;;;;7.03;1.60;;;27.30;80.90;;;;;;5031440;28;20036;-77
2021/06/17 08:21:57;;;;;;;4.80;2.10;;;27.20;79.00;;;;;;5031456;28;20445;-77
2021/06/17 08:24:24;;;;;;;4.97;2.00;;;27.00;82.20;;;;;;5031296;28;20030;-77
2021/06/17 08:26:49;;;;;;;6.78;2.00;;;27.10;82.80;;;;;;5031404;28;20026;-77
2021/06/17 08:29:15;;;;;;;4.30;2.00;;;27.20;80.40;;;;;;5032593;28;20014;-77
2021/06/17 08:31:43;;;;;;;2.35;1.55;;;27.40;78.50;;;;;;5035786;28;20079;-77
2021/06/17 08:34:12;;;;;;;5.47;2.00;;;27.20;78.10;;;;;;5034946;28;20397;-77
2021/06/17 08:36:39;;;;;;;6.63;1.60;;;27.20;76.70;;;;;;5034745;28;20049;-77
2021/06/17 08:39:05;;;;;;;4.78;1.65;;;27.30;79.00;;;;;;5034946;28;20485;-77
2021/06/17 08:41:32;;;;;;;4.90;1.80;;;27.40;80.10;;;;;;5034830;28;20103;-77
2021/06/17 08:43:58;;;;;;;5.05;1.77;;;27.50;75.50;;;;;;5034792;28;20476;-77
2021/06/17 08:46:24;;;;;;;5.90;1.60;;;27.50;76.20;;;;;;5034753;28;20121;-77
2021/06/17 08:48:50;;;;;;;5.70;1.35;;;27.90;75.00;;;;;;5036578;28;20416;-77
2021/06/17 08:51:18;;;;;;;6.03;2.20;;;28.10;74.70;;;;;;5034676;28;20029;-77
2021/06/17 08:53:45;;;;;;;4.13;1.73;;;28.70;75.40;;;;;;5035918;28;20473;-77
2021/06/17 08:56:11;;;;;;;5.95;2.05;;;28.60;78.30;;;;;;5036157;28;20457;-77
2021/06/17 08:58:36;;;;;;;4.63;2.10;;;28.40;80.30;;;;;;5035798;28;20071;-77
2021/06/17 09:01:10;;;;;;;8.57;2.00;;;28.30;80.90;;;;;;5034611;28;20443;-78
2021/06/17 09:03:39;;;;;;;7.80;2.15;;;28.10;81.00;;;;;;5034759;28;20033;-77
2021/06/17 09:06:06;;;;;;;9.60;1.85;;;28.10;80.40;;;;;;5034322;28;20029;-77
2021/06/17 09:08:33;;;;;;;3.63;1.50;;;28.30;80.20;;;;;;5035931;28;20040;-78
2021/06/17 09:11:00;;;;;;;3.65;1.73;;;28.50;78.90;;;;;;5035592;28;20021;-78
2021/06/17 09:13:32;;;;;;;5.80;1.70;;;28.70;78.30;;;;;;5034301;28;20033;-77
2021/06/17 09:15:58;;;;;;;6.03;1.80;;;28.80;77.50;;;;;;5035557;28;20486;-77
2021/06/17 09:18:28;;;;;;;8.70;1.90;;;28.90;78.80;;;;;;5035469;28;20024;-77
2021/06/17 09:21:06;;;;;;;11.18;2.35;;;29.30;78.00;;;;;;5034160;28;20159;-78
2021/06/17 09:23:40;;;;;;;3.20;1.80;;;29.60;77.20;;;;;;5035327;28;20156;-78
2021/06/17 09:26:20;;;;;;;7.25;1.90;;;29.50;77.30;;;;;;5035600;28;20026;-77
2021/06/17 09:29:00;;;;;;;9.05;1.70;;;29.70;77.00;;;;;;5035276;28;20057;-78
2021/06/17 09:31:28;;;;;;;11.75;2.22;;;30.10;77.30;;;;;;5035508;28;20025;-77
2021/06/17 09:33:55;;;;;;;5.50;1.75;;;30.20;77.00;;;;;;5033844;28;20484;-78
2021/06/17 09:36:23;;;;;;;3.70;1.77;;;30.50;76.50;;;;;;5034980;28;20497;-77
2021/06/17 09:38:54;;;;;;;5.90;2.05;;;30.80;75.80;;;;;;5033857;28;20061;-78
2021/06/17 09:41:43;;;;;;;10.90;1.90;;;31.10;74.40;;;;;;5034256;28;20028;-78
2021/06/17 09:44:39;;;;;;;10.05;2.00;;;31.20;75.00;;;;;;5033627;28;20083;-77
2021/06/17 09:47:24;;;;;;;7.78;2.20;;;31.00;76.70;;;;;;5034950;28;20026;-78
2021/06/17 09:49:52;;;;;;;5.18;1.98;;;30.70;76.00;;;;;;5033668;28;20014;-78
2021/06/17 09:52:18;;;;;;;10.73;2.30;;;30.60;76.50;;;;;;5034855;28;20550;-78
2021/06/17 09:54:45;;;;;;;4.95;2.20;;;30.40;77.70;;;;;;5034782;28;20025;-78
2021/06/17 09:57:20;;;;;;;7.38;1.80;;;30.60;78.10;;;;;;5033752;28;20029;-78
2021/06/17 09:59:51;;;;;;;10.00;2.10;;;30.80;76.30;;;;;;5033473;28;20439;-78
2021/06/17 10:02:24;;;;;;;5.45;1.73;;;31.10;77.20;;;;;;5034696;28;20026;-78
2021/06/17 10:04:51;;;;;;;3.17;1.85;;;31.30;75.30;;;;;;5033369;28;20032;-78
2021/06/17 10:07:18;;;;;;;6.88;2.03;;;31.30;74.00;;;;;;5034813;28;20017;-77
2021/06/17 10:09:46;;;;;;;2.33;1.75;;;31.40;74.80;;;;;;5034760;28;20025;-78
2021/06/17 10:12:13;;;;;;;7.80;2.22;;;31.70;73.90;;;;;;5034444;28;20025;-78
2021/06/17 10:14:39;;;;;;;4.50;1.98;;;31.50;72.70;;;;;;5034691;28;20032;-78
2021/06/17 10:17:06;;;;;;;4.63;1.85;;;31.40;73.10;;;;;;5033120;28;20033;-78
2021/06/17 10:19:32;;;;;;;10.32;2.05;;;31.50;73.60;;;;;;5034320;28;20026;-78
2021/06/17 10:21:58;;;;;;;6.18;1.63;;;31.70;72.20;;;;;;5033037;28;20033;-77
2021/06/17 10:24:27;;;;;;;5.65;1.92;;;31.70;72.20;;;;;;5032858;28;20072;-78
2021/06/17 10:26:55;;;;;;;14.27;2.42;;;31.60;70.70;;;;;;5034096;28;20454;-77
2021/06/17 10:29:27;;;;;;;5.82;2.00;;;31.80;71.30;;;;;;5034229;28;20034;-78
2021/06/17 10:31:57;;;;;;;5.60;2.28;;;32.00;72.50;;;;;;5032779;28;20477;-78
2021/06/17 10:34:23;;;;;;;5.00;1.70;;;31.90;70.70;;;;;;5032604;28;20026;-78
2021/06/17 10:37:09;;;;;;;5.15;1.80;;;32.10;70.80;;;;;;5033858;28;20046;-78
2021/06/17 10:39:48;;;;;;;5.15;1.95;;;32.30;71.80;;;;;;5034237;28;20022;-78
2021/06/17 10:42:16;;;;;;;9.30;2.40;;;32.60;70.10;;;;;;5034197;28;20032;-78
2021/06/17 10:44:49;;;;;;;5.47;1.80;;;32.60;69.40;;;;;;5033915;28;20095;-78
2021/06/17 10:50:09;;;;;;;7.85;2.20;;;33.10;69.00;;;;;;5033766;28;20366;-78
2021/06/17 10:52:38;;;;;;;4.82;1.98;;;33.40;68.20;;;;;;5032116;28;20454;-78
2021/06/17 10:55:11;;;;;;;8.27;1.98;;;33.50;67.70;;;;;;5032377;28;20047;-77
2021/06/17 10:57:50;;;;;;;3.55;1.98;;;33.10;66.50;;;;;;5034084;28;20021;-77
2021/06/17 11:03:17;;;;;;;6.45;1.80;;;33.00;66.00;;;;;;5033586;28;20029;-77
2021/06/17 11:05:47;;;;;;;11.98;2.05;;;33.20;67.50;;;;;;4997171;28;20034;-77
2021/06/17 11:08:19;;;;;;;6.93;1.83;;;33.50;66.60;;;;;;5033582;28;20028;-77
2021/06/17 11:11:06;;;;;;;5.38;1.95;;;34.00;65.70;;;;;;5033778;28;20061;-77
2021/06/17 11:13:35;;;;;;;10.63;2.05;;;34.00;66.60;;;;;;5032262;28;20033;-77
2021/06/17 11:16:13;;;;;;;5.82;2.08;;;33.90;63.00;;;;;;5032062;28;20039;-77
2021/06/17 11:18:44;;;;;;;7.05;2.20;;;33.20;64.70;;;;;;5033652;28;20079;-77
2021/06/17 11:21:22;;;;;;;8.20;2.00;;;33.00;64.90;;;;;;5032052;28;20112;-78
2021/06/17 11:23:53;;;;;;;10.15;2.33;;;33.10;65.10;;;;;;5033228;28;20022;-77
2021/06/17 11:26:38;;;;;;;12.70;1.98;;;32.90;65.60;;;;;;5033348;28;20021;-78
2021/06/17 11:29:05;;;;;;;5.82;1.90;;;33.40;64.80;;;;;;5031972;28;20021;-78
2021/06/17 11:31:41;;;;;;;4.93;1.90;;;33.90;64.50;;;;;;5031976;28;20068;-77
2021/06/17 11:34:08;;;;;;;7.22;2.40;;;34.40;64.20;;;;;;5033138;28;20477;-77
2021/06/17 11:36:35;;;;;;;5.28;2.10;;;34.50;62.90;;;;;;5033025;28;20172;-78
2021/06/17 11:39:02;;;;;;;7.10;2.10;;;34.70;61.60;;;;;;5031873;28;20029;-78
2021/06/17 11:41:30;;;;;;;4.93;1.70;;;34.60;61.70;;;;;;5031880;28;20032;-77
2021/06/17 11:44:04;;;;;;;6.15;1.80;;;35.00;62.00;;;;;;5031821;28;20148;-78
2021/06/17 11:46:38;;;;;;;8.00;1.95;;;35.50;60.70;;;;;;5032910;28;20038;-77
2021/06/17 11:49:08;;;;;;;6.50;1.90;;;35.70;60.10;;;;;;5031719;28;20554;-78
2021/06/17 11:51:46;;;;;;;3.45;2.08;;;35.70;60.80;;;;;;5033035;28;20049;-78
2021/06/17 11:54:24;;;;;;;5.75;1.85;;;35.60;59.20;;;;;;5032991;28;20084;-77
2021/06/17 11:56:51;;;;;;;8.73;1.98;;;35.50;60.90;;;;;;5033055;28;20057;-77
2021/06/17 11:59:31;;;;;;;4.30;2.00;;;35.20;60.40;;;;;;5032981;28;20049;-78
2021/06/17 12:02:22;;;;;;;11.60;2.17;;;35.80;59.10;;;;;;5031771;28;20026;-78
2021/06/17 12:04:59;;;;;;;5.88;2.00;;;35.90;59.00;;;;;;5031869;28;20496;-78
2021/06/17 12:07:36;;;;;;;8.32;2.72;;;35.70;58.50;;;;;;5035530;28;20025;-78
2021/06/17 12:10:06;;;;;;;251.30;25.73;;;35.40;59.20;;;;;;5037075;28;20025;-78
2021/06/17 12:12:33;;;;;;;9.10;2.42;;;35.20;58.50;;;;;;5037007;28;20427;-78
2021/06/17 12:14:59;;;;;;;18.92;3.05;;;35.50;58.80;;;;;;5036881;28;20473;-78
2021/06/17 12:17:29;;;;;;;7.70;2.20;;;35.70;59.50;;;;;;5035284;28;20029;-78
2021/06/17 12:19:56;;;;;;;8.13;2.00;;;35.90;58.50;;;;;;5035302;28;20484;-77
2021/06/17 12:22:22;;;;;;;11.38;2.15;;;35.30;59.80;;;;;;5036641;28;20381;-78
2021/06/17 12:24:48;;;;;;;18.45;2.40;;;35.80;58.70;;;;;;5036427;28;20024;-78
2021/06/17 12:27:14;;;;;;;8.93;2.00;;;36.30;58.50;;;;;;5036422;28;20097;-78
2021/06/17 12:29:40;;;;;;;5.85;1.80;;;36.50;56.90;;;;;;5036439;28;20076;-78
2021/06/17 12:32:06;;;;;;;5.75;1.85;;;36.50;57.00;;;;;;5036361;28;20025;-78
2021/06/17 12:34:43;;;;;;;7.30;2.80;;;36.50;57.00;;;;;;5034967;28;20033;-78
2021/06/17 12:37:10;;;;;;;6.60;2.10;;;36.00;57.20;;;;;;5036293;28;20099;-78
2021/06/17 12:39:37;;;;;;;5.68;2.03;;;35.90;56.20;;;;;;5035006;28;20030;-79
2021/06/17 12:42:14;;;;;;;8.80;2.17;;;35.90;56.50;;;;;;5036149;28;20117;-78
2021/06/17 12:44:42;;;;;;;7.38;2.03;;;36.30;56.10;;;;;;5036076;28;20389;-78
2021/06/17 12:47:18;;;;;;;6.15;2.03;;;36.80;56.00;;;;;;5034730;28;20025;-78
2021/06/17 12:52:30;;;;;;;4.47;2.00;;;37.70;54.60;;;;;;5036367;28;20080;-78
2021/06/17 12:54:57;;;;;;;9.57;2.25;;;37.90;53.40;;;;;;5035945;28;20033;-79
2021/06/17 12:57:24;;;;;;;7.97;2.10;;;38.10;53.40;;;;;;5035887;28;20079;-78
2021/06/17 13:00:04;;;;;;;5.55;1.98;;;38.00;53.40;;;;;;5035898;28;20029;-79
2021/06/17 13:02:29;;;;;;;10.80;2.20;;;37.20;53.90;;;;;;5034585;28;20033;-79
2021/06/17 13:05:06;;;;;;;4.63;1.80;;;37.10;54.10;;;;;;5034417;28;20026;-79
2021/06/17 13:07:33;;;;;;;4.68;2.13;;;37.20;55.10;;;;;;5036035;28;20512;-79